createdAt,value
2018-07-10T00:02:27.177Z,22.70
2018-07-10T00:05:35.206Z,22.70
2018-07-10T00:10:16.426Z,22.70
2018-07-10T00:12:43.716Z,22.70
2018-07-10T00:15:11.055Z,22.70
2018-07-10T00:17:38.370Z,22.60
2018-07-10T00:20:05.757Z,22.60
2018-07-10T00:22:33.143Z,22.60
2018-07-10T00:25:00.490Z,22.60
2018-07-10T00:27:27.832Z,22.60
2018-07-10T00:29:55.134Z,22.60
2018-07-10T00:32:22.497Z,22.60
2018-07-10T00:34:49.842Z,22.60
2018-07-10T00:37:17.281Z,22.60
2018-07-10T00:39:44.690Z,22.60
2018-07-10T00:42:13.348Z,22.60
2018-07-10T00:44:40.678Z,22.60
2018-07-10T00:47:07.989Z,22.60
2018-07-10T00:49:35.306Z,22.60
2018-07-10T00:52:02.619Z,22.50
2018-07-10T00:54:29.849Z,22.50
2018-07-10T00:56:57.154Z,22.60
2018-07-10T00:59:24.493Z,22.60
2018-07-10T01:01:52.937Z,22.60
2018-07-10T01:04:20.198Z,22.50
2018-07-10T01:06:47.477Z,22.50
2018-07-10T01:09:15.234Z,22.50
2018-07-10T01:11:42.644Z,22.50
2018-07-10T01:14:09.976Z,22.40
2018-07-10T01:16:38.538Z,22.50
2018-07-10T01:19:12.785Z,22.40
2018-07-10T01:21:41.176Z,22.50
2018-07-10T01:24:08.535Z,22.50
2018-07-10T01:26:38.143Z,22.40
2018-07-10T01:29:12.068Z,22.40
2018-07-10T01:31:42.133Z,22.50
2018-07-10T01:34:09.509Z,22.50
2018-07-10T01:36:36.945Z,22.40
2018-07-10T01:39:04.818Z,22.30
2018-07-10T01:41:32.117Z,22.30
2018-07-10T01:43:59.525Z,22.30
2018-07-10T01:46:26.833Z,22.30
2018-07-10T01:48:54.233Z,22.30
2018-07-10T01:51:21.633Z,22.30
2018-07-10T01:53:49.906Z,22.30
2018-07-10T01:56:17.390Z,22.30
2018-07-10T01:58:44.731Z,22.30
2018-07-10T02:01:12.080Z,22.30
2018-07-10T02:03:39.410Z,22.30
2018-07-10T02:06:08.318Z,22.30
2018-07-10T02:08:35.684Z,22.20
2018-07-10T02:11:03.071Z,22.30
2018-07-10T02:13:30.485Z,22.20
2018-07-10T02:15:57.806Z,22.20
2018-07-10T02:18:25.214Z,22.20
2018-07-10T02:20:58.573Z,22.20
2018-07-10T02:23:30.576Z,22.20
2018-07-10T02:25:57.958Z,22.20
2018-07-10T02:28:25.314Z,22.20
2018-07-10T02:30:52.617Z,22.20
2018-07-10T02:33:19.959Z,22.20
2018-07-10T02:35:47.291Z,22.10
2018-07-10T02:38:14.894Z,22.10
2018-07-10T02:40:43.383Z,22.10
2018-07-10T02:43:10.738Z,22.10
2018-07-10T02:45:38.119Z,22.10
2018-07-10T02:48:05.462Z,22.10
2018-07-10T02:50:33.138Z,22.10
2018-07-10T02:53:00.642Z,22.00
2018-07-10T02:55:28.826Z,22.10
2018-07-10T02:57:56.258Z,22.00
2018-07-10T03:00:23.634Z,22.10
2018-07-10T03:02:51.032Z,22.10
2018-07-10T03:05:19.742Z,22.10
2018-07-10T03:07:47.109Z,22.10
2018-07-10T03:10:14.465Z,22.00
2018-07-10T03:12:42.169Z,22.00
2018-07-10T03:15:11.350Z,22.00
2018-07-10T03:17:38.821Z,22.00
2018-07-10T03:20:07.021Z,22.00
2018-07-10T03:25:01.916Z,21.90
2018-07-10T03:27:29.578Z,21.90
2018-07-10T03:29:58.085Z,21.90
2018-07-10T03:32:25.509Z,21.90
2018-07-10T03:34:52.829Z,21.90
2018-07-10T03:37:20.134Z,21.90
2018-07-10T03:39:47.942Z,21.90
2018-07-10T03:42:16.490Z,21.80
2018-07-10T03:44:44.939Z,21.90
2018-07-10T03:47:13.418Z,21.80
2018-07-10T03:49:41.046Z,21.80
2018-07-10T03:52:08.370Z,21.70
2018-07-10T03:54:39.923Z,21.80
2018-07-10T03:57:07.305Z,21.80
2018-07-10T03:59:44.693Z,21.70
2018-07-10T04:02:12.017Z,21.80
2018-07-10T04:04:39.347Z,21.70
2018-07-10T04:07:06.710Z,21.70
2018-07-10T04:09:34.029Z,21.70
2018-07-10T04:12:01.397Z,21.60
2018-07-10T04:14:28.752Z,21.60
2018-07-10T04:16:56.050Z,21.60
2018-07-10T04:19:23.446Z,21.50
2018-07-10T04:21:52.778Z,21.40
2018-07-10T04:24:20.530Z,21.40
2018-07-10T04:26:57.850Z,21.40
2018-07-10T04:29:33.478Z,21.40
2018-07-10T04:32:01.024Z,21.40
2018-07-10T04:34:30.063Z,21.40
2018-07-10T04:37:03.227Z,21.40
2018-07-10T04:39:30.586Z,21.40
2018-07-10T04:42:05.492Z,21.40
2018-07-10T04:44:33.149Z,21.40
2018-07-10T04:47:07.414Z,21.40
2018-07-10T04:49:56.030Z,21.30
2018-07-10T04:52:25.432Z,21.30
2018-07-10T04:55:06.030Z,21.30
2018-07-10T04:57:36.082Z,21.30
2018-07-10T05:00:04.834Z,21.20
2018-07-10T05:02:33.182Z,21.20
2018-07-10T05:05:00.790Z,21.20
2018-07-10T05:07:28.551Z,21.20
2018-07-10T05:09:55.959Z,21.20
2018-07-10T05:12:23.261Z,21.20
2018-07-10T05:14:51.584Z,21.20
2018-07-10T05:17:19.726Z,21.20
2018-07-10T05:19:47.426Z,21.20
2018-07-10T05:22:15.398Z,21.10
2018-07-10T05:24:42.950Z,21.10
2018-07-10T05:27:10.353Z,21.10
2018-07-10T05:29:37.618Z,21.20
2018-07-10T05:32:05.007Z,21.10
2018-07-10T05:34:33.893Z,21.10
2018-07-10T05:37:01.226Z,21.10
2018-07-10T05:39:31.690Z,21.10
2018-07-10T05:41:59.102Z,21.20
2018-07-10T05:44:26.439Z,21.20
2018-07-10T05:47:00.260Z,21.10
2018-07-10T05:49:27.589Z,21.10
2018-07-10T05:51:55.028Z,21.20
2018-07-10T05:54:24.908Z,21.20
2018-07-10T05:56:52.306Z,21.20
2018-07-10T05:59:20.166Z,21.10
2018-07-10T06:01:47.551Z,21.20
2018-07-10T06:04:16.516Z,21.20
2018-07-10T06:06:44.554Z,21.10
2018-07-10T06:09:12.874Z,21.10
2018-07-10T06:11:40.221Z,21.10
2018-07-10T06:14:07.583Z,21.10
2018-07-10T06:16:37.711Z,21.10
2018-07-10T06:19:05.588Z,21.10
2018-07-10T06:21:39.113Z,21.10
2018-07-10T06:24:09.081Z,21.10
2018-07-10T06:26:39.138Z,21.10
2018-07-10T06:29:06.498Z,21.10
2018-07-10T06:31:40.027Z,21.10
2018-07-10T06:34:07.334Z,21.10
2018-07-10T06:36:40.049Z,21.10
2018-07-10T06:39:10.105Z,21.00
2018-07-10T06:42:09.786Z,21.10
2018-07-10T06:44:37.779Z,21.00
2018-07-10T06:47:40.363Z,21.00
2018-07-10T06:50:07.755Z,21.00
2018-07-10T06:52:35.307Z,21.00
2018-07-10T06:55:04.277Z,21.00
2018-07-10T06:57:32.818Z,20.90
2018-07-10T07:00:02.531Z,20.90
2018-07-10T07:02:30.393Z,20.90
2018-07-10T07:04:57.757Z,21.00
2018-07-10T07:07:25.102Z,21.00
2018-07-10T07:09:52.402Z,21.00
2018-07-10T07:12:19.720Z,21.00
2018-07-10T07:14:47.108Z,21.10
2018-07-10T07:17:14.426Z,21.10
2018-07-10T07:19:41.726Z,21.10
2018-07-10T07:22:09.250Z,21.10
2018-07-10T07:24:36.595Z,21.10
2018-07-10T07:27:03.923Z,21.10
2018-07-10T07:29:31.249Z,21.10
2018-07-10T07:31:58.643Z,21.10
2018-07-10T07:34:26.018Z,21.20
2018-07-10T07:36:53.630Z,21.20
2018-07-10T07:39:20.960Z,21.30
2018-07-10T07:41:48.526Z,21.40
2018-07-10T07:44:15.931Z,21.40
2018-07-10T07:46:44.237Z,21.40
2018-07-10T07:49:11.534Z,21.50
2018-07-10T07:51:38.828Z,21.50
2018-07-10T07:54:06.371Z,21.60
2018-07-10T07:56:33.742Z,21.50
2018-07-10T07:59:01.109Z,21.50
2018-07-10T08:01:28.501Z,21.50
2018-07-10T08:03:55.849Z,21.60
2018-07-10T08:06:23.261Z,21.60
2018-07-10T08:08:50.674Z,21.60
2018-07-10T08:13:45.544Z,21.80
2018-07-10T08:16:13.602Z,21.90
2018-07-10T08:18:40.952Z,21.90
2018-07-10T08:21:08.310Z,21.90
2018-07-10T08:23:35.755Z,21.90
2018-07-10T08:26:03.169Z,21.90
2018-07-10T08:30:57.818Z,21.80
2018-07-10T08:33:25.277Z,21.70
2018-07-10T08:35:52.579Z,21.80
2018-07-10T08:38:37.781Z,21.70
2018-07-10T08:41:05.715Z,21.80
2018-07-10T08:43:33.073Z,21.70
2018-07-10T08:46:00.621Z,21.70
2018-07-10T08:48:27.958Z,21.70
2018-07-10T08:50:55.540Z,21.70
2018-07-10T08:53:23.071Z,21.70
2018-07-10T08:55:50.470Z,21.70
2018-07-10T08:58:17.771Z,21.70
2018-07-10T09:00:45.090Z,21.70
2018-07-10T09:03:12.413Z,21.70
2018-07-10T09:05:39.782Z,21.70
2018-07-10T09:08:07.178Z,21.70
2018-07-10T09:10:34.487Z,21.70
2018-07-10T09:13:01.893Z,21.70
2018-07-10T09:15:31.294Z,21.70
2018-07-10T09:17:59.245Z,21.80
2018-07-10T09:20:29.166Z,21.70
2018-07-10T09:22:56.634Z,21.70
2018-07-10T09:25:24.028Z,21.70
2018-07-10T09:27:51.673Z,21.90
2018-07-10T09:30:18.981Z,22.00
2018-07-10T09:32:46.409Z,22.10
2018-07-10T09:35:13.741Z,22.10
2018-07-10T09:37:45.167Z,22.10
2018-07-10T09:40:14.148Z,22.10
2018-07-10T09:42:45.228Z,22.20
2018-07-10T09:45:12.835Z,22.20
2018-07-10T09:47:40.257Z,22.10
2018-07-10T09:50:07.919Z,22.10
2018-07-10T09:52:35.357Z,22.10
2018-07-10T09:55:02.924Z,22.10
2018-07-10T09:57:30.889Z,22.00
2018-07-10T09:59:58.203Z,22.10
2018-07-10T10:02:33.249Z,22.10
2018-07-10T10:05:02.543Z,22.20
2018-07-10T10:07:30.146Z,22.20
2018-07-10T10:09:57.610Z,22.20
2018-07-10T10:12:24.953Z,22.20
2018-07-10T10:14:52.343Z,22.20
2018-07-10T10:19:48.300Z,22.20
2018-07-10T10:22:15.625Z,22.20
2018-07-10T10:24:42.973Z,22.30
2018-07-10T10:27:10.370Z,22.20
2018-07-10T10:29:37.705Z,22.20
2018-07-10T10:32:05.102Z,22.20
2018-07-10T10:34:32.437Z,22.40
2018-07-10T10:36:59.744Z,22.50
2018-07-10T10:39:27.150Z,22.60
2018-07-10T10:41:54.494Z,22.60
2018-07-10T10:44:22.759Z,22.70
2018-07-10T10:46:50.070Z,22.80
2018-07-10T10:49:17.412Z,22.80
2018-07-10T10:51:45.537Z,22.80
2018-07-10T10:54:12.946Z,22.80
2018-07-10T10:56:40.308Z,22.80
2018-07-10T10:59:07.698Z,22.80
2018-07-10T11:01:34.995Z,22.70
2018-07-10T11:04:02.351Z,22.70
2018-07-10T11:06:30.085Z,22.70
2018-07-10T11:08:58.230Z,22.90
2018-07-10T11:11:26.313Z,22.90
2018-07-10T11:13:53.630Z,23.00
2018-07-10T11:16:21.325Z,23.00
2018-07-10T11:18:55.607Z,23.10
2018-07-10T11:21:31.982Z,23.10
2018-07-10T11:23:59.354Z,23.20
2018-07-10T11:26:33.942Z,23.20
2018-07-10T11:29:01.601Z,23.20
2018-07-10T11:31:28.949Z,23.30
2018-07-10T11:33:56.230Z,23.30
2018-07-10T11:36:23.563Z,23.30
2018-07-10T11:38:50.916Z,23.30
2018-07-10T11:41:18.298Z,23.30
2018-07-10T11:43:45.593Z,23.30
2018-07-10T11:46:12.961Z,23.40
2018-07-10T11:48:40.466Z,23.40
2018-07-10T11:51:07.817Z,23.50
2018-07-10T11:53:35.621Z,23.50
2018-07-10T11:56:02.910Z,23.50
2018-07-10T11:58:30.293Z,23.40
2018-07-10T12:00:57.706Z,23.50
2018-07-10T12:03:25.894Z,23.50
2018-07-10T12:05:53.270Z,23.50
2018-07-10T12:08:20.705Z,23.50
2018-07-10T12:11:57.175Z,23.50
2018-07-10T12:14:24.550Z,23.60
2018-07-10T12:16:51.879Z,23.50
2018-07-10T12:19:19.277Z,23.50
2018-07-10T12:21:46.642Z,23.40
2018-07-10T12:24:14.137Z,23.40
2018-07-10T12:26:41.489Z,23.30
2018-07-10T12:29:08.840Z,23.30
2018-07-10T12:31:36.226Z,23.20
2018-07-10T12:34:03.682Z,23.30
2018-07-10T12:36:31.021Z,23.30
2018-07-10T12:38:58.430Z,23.30
2018-07-10T12:41:25.745Z,23.30
2018-07-10T12:43:53.188Z,23.30
2018-07-10T12:46:20.585Z,23.30
2018-07-10T12:48:48.021Z,23.30
2018-07-10T12:51:15.387Z,23.30
2018-07-10T12:53:42.878Z,23.30
2018-07-10T12:56:10.218Z,23.20
2018-07-10T12:58:41.890Z,23.20
2018-07-10T13:01:09.325Z,23.20
2018-07-10T13:03:37.048Z,23.30
2018-07-10T13:06:04.390Z,23.30
2018-07-10T13:08:31.774Z,23.30
2018-07-10T13:10:59.062Z,23.30
2018-07-10T13:13:27.046Z,23.30
2018-07-10T13:15:54.436Z,23.20
2018-07-10T13:18:24.690Z,23.10
2018-07-10T13:20:52.017Z,23.10
2018-07-10T13:23:19.480Z,23.10
2018-07-10T13:25:46.853Z,23.00
2018-07-10T13:28:14.386Z,23.00
2018-07-10T13:30:41.893Z,23.00
2018-07-10T13:35:36.648Z,23.00
2018-07-10T13:38:04.626Z,22.90
2018-07-10T13:40:33.853Z,22.90
2018-07-10T13:45:29.758Z,22.80
2018-07-10T13:47:57.119Z,22.90
2018-07-10T13:50:26.418Z,22.90
2018-07-10T13:52:54.841Z,22.90
2018-07-10T13:55:22.250Z,22.90
2018-07-10T13:58:03.246Z,22.90
2018-07-10T14:00:31.098Z,22.90
2018-07-10T14:02:58.466Z,23.00
2018-07-10T14:05:25.774Z,23.00
2018-07-10T14:07:53.537Z,23.10
2018-07-10T14:10:21.306Z,23.10
2018-07-10T14:12:48.664Z,23.10
2018-07-10T14:15:16.122Z,23.00
2018-07-10T14:17:43.801Z,23.00
2018-07-10T14:20:11.337Z,23.00
2018-07-10T14:22:39.171Z,22.90
2018-07-10T14:25:06.505Z,22.90
2018-07-10T14:27:34.035Z,22.90
2018-07-10T14:30:01.447Z,22.90
2018-07-10T14:32:28.774Z,22.90
2018-07-10T14:34:56.221Z,23.00
2018-07-10T14:37:23.578Z,23.00
2018-07-10T14:39:51.043Z,23.10
2018-07-10T14:42:18.676Z,23.10
2018-07-10T14:44:45.998Z,23.10
2018-07-10T14:47:13.687Z,23.10
2018-07-10T14:49:41.055Z,23.10
2018-07-10T14:52:08.434Z,23.10
2018-07-10T14:57:03.462Z,23.00
2018-07-10T14:59:30.851Z,23.00
2018-07-10T15:01:58.198Z,23.00
2018-07-10T15:04:25.612Z,22.90
2018-07-10T15:06:53.013Z,22.90
2018-07-10T15:09:20.307Z,22.90
2018-07-10T15:11:47.678Z,23.00
2018-07-10T15:14:14.946Z,23.00
2018-07-10T15:16:47.930Z,22.90
2018-07-10T15:19:16.043Z,22.90
2018-07-10T15:21:43.586Z,22.90
2018-07-10T15:24:11.509Z,22.90
2018-07-10T15:26:38.862Z,22.90
2018-07-10T15:29:06.221Z,22.90
2018-07-10T15:31:33.836Z,22.90
2018-07-10T15:34:03.256Z,22.90
2018-07-10T15:36:30.574Z,22.80
2018-07-10T15:38:57.949Z,22.90
2018-07-10T15:41:27.031Z,22.90
2018-07-10T15:43:54.428Z,22.80
2018-07-10T15:46:22.555Z,22.80
2018-07-10T15:48:49.920Z,22.90
2018-07-10T15:51:17.294Z,22.90
2018-07-10T15:53:44.566Z,22.90
2018-07-10T15:56:11.934Z,22.80
2018-07-10T15:58:39.358Z,22.90
2018-07-10T16:01:06.854Z,22.90
2018-07-10T16:03:34.362Z,22.90
2018-07-10T16:06:02.730Z,22.90
2018-07-10T16:08:30.811Z,22.90
2018-07-10T16:11:01.173Z,22.90
2018-07-10T16:13:31.509Z,22.90
2018-07-10T16:15:58.881Z,22.80
2018-07-10T16:20:57.945Z,22.70
2018-07-10T16:23:25.294Z,22.70
2018-07-10T16:25:58.728Z,22.80
2018-07-10T16:28:26.013Z,22.80
2018-07-10T16:30:53.522Z,22.80
2018-07-10T16:33:27.741Z,22.70
2018-07-10T16:35:55.046Z,22.70
2018-07-10T16:38:22.403Z,22.80
2018-07-10T16:40:50.206Z,22.90
2018-07-10T16:43:23.903Z,22.80
2018-07-10T16:45:52.520Z,22.80
2018-07-10T16:48:24.310Z,22.70
2018-07-10T16:51:27.668Z,22.70
2018-07-10T16:54:00.146Z,22.60
2018-07-10T16:56:27.781Z,22.60
2018-07-10T16:58:56.261Z,22.60
2018-07-10T17:01:24.142Z,22.60
2018-07-10T17:03:51.570Z,22.70
2018-07-10T17:06:19.535Z,22.70
2018-07-10T17:08:46.809Z,22.60
2018-07-10T17:11:14.254Z,22.60
2018-07-10T17:13:41.677Z,22.70
2018-07-10T17:16:08.928Z,22.60
2018-07-10T17:18:36.302Z,22.60
2018-07-10T17:21:03.648Z,22.60
2018-07-10T17:23:31.074Z,22.60
2018-07-10T17:25:58.622Z,22.50
2018-07-10T17:28:25.968Z,22.60
2018-07-10T17:30:53.269Z,22.60
2018-07-10T17:33:20.627Z,22.50
2018-07-10T17:35:47.973Z,22.60
2018-07-10T17:38:15.286Z,22.50
2018-07-10T17:40:42.650Z,22.50
2018-07-10T17:43:10.394Z,22.50
2018-07-10T17:45:37.743Z,22.40
2018-07-10T17:48:05.633Z,22.50
2018-07-10T17:50:33.154Z,22.40
2018-07-10T17:53:00.589Z,22.30
2018-07-10T17:55:27.951Z,22.20
2018-07-10T17:58:03.347Z,22.20
2018-07-10T18:00:30.760Z,22.20
2018-07-10T18:02:58.059Z,22.20
2018-07-10T18:05:25.351Z,22.20
2018-07-10T18:07:52.674Z,22.20
2018-07-10T18:10:20.019Z,22.10
2018-07-10T18:12:47.382Z,22.10
2018-07-10T18:15:14.814Z,22.10
2018-07-10T18:17:42.152Z,22.10
2018-07-10T18:20:09.519Z,22.10
2018-07-10T18:22:36.859Z,22.40
2018-07-10T18:25:04.190Z,22.10
2018-07-10T18:27:31.509Z,22.10
2018-07-10T18:29:59.101Z,22.10
2018-07-10T18:32:26.888Z,22.00
2018-07-10T18:34:54.210Z,22.00
2018-07-10T18:37:21.510Z,22.00
2018-07-10T18:39:48.874Z,22.00
2018-07-10T18:42:16.431Z,22.00
2018-07-10T18:44:43.716Z,22.00
2018-07-10T18:47:11.043Z,22.00
2018-07-10T18:49:38.501Z,22.00
2018-07-10T18:52:05.866Z,22.00
2018-07-10T18:54:35.745Z,21.90
2018-07-10T18:57:11.113Z,21.90
2018-07-10T18:59:38.461Z,21.90
2018-07-10T19:02:17.330Z,21.90
2018-07-10T19:04:54.166Z,21.90
2018-07-10T19:07:21.797Z,21.90
2018-07-10T19:09:49.268Z,21.90
2018-07-10T19:12:16.801Z,21.90
2018-07-10T19:14:44.530Z,21.80
2018-07-10T19:17:13.514Z,21.90
2018-07-10T19:19:44.324Z,21.90
2018-07-10T19:22:11.736Z,21.90
2018-07-10T19:24:40.646Z,21.90
2018-07-10T19:27:08.137Z,21.90
2018-07-10T19:29:47.069Z,21.80
2018-07-10T19:32:14.739Z,21.80
2018-07-10T19:34:42.141Z,21.80
2018-07-10T19:37:09.621Z,21.90
2018-07-10T19:39:37.028Z,21.90
2018-07-10T19:42:04.783Z,21.80
2018-07-10T19:44:32.202Z,21.70
2018-07-10T19:46:59.619Z,21.60
2018-07-10T19:49:26.985Z,21.50
2018-07-10T19:51:54.327Z,21.40
2018-07-10T19:54:21.749Z,21.40
2018-07-10T19:56:49.042Z,21.40
2018-07-10T19:59:16.607Z,21.40
2018-07-10T20:01:45.441Z,21.30
2018-07-10T20:04:25.506Z,21.30
2018-07-10T20:07:08.382Z,21.30
2018-07-10T20:09:48.438Z,21.30
2018-07-10T20:12:18.942Z,21.30
2018-07-10T20:14:57.230Z,21.10
2018-07-10T20:17:26.778Z,21.10
2018-07-10T20:20:06.173Z,21.10
2018-07-10T20:24:51.665Z,21.10
2018-07-10T20:27:27.145Z,21.10
2018-07-10T20:30:07.190Z,21.10
2018-07-10T20:32:54.026Z,21.00
2018-07-10T20:35:25.994Z,21.00
2018-07-10T20:37:53.375Z,21.00
2018-07-10T20:40:28.957Z,21.00
2018-07-10T20:42:56.324Z,21.00
2018-07-10T20:45:24.384Z,21.00
2018-07-10T20:47:54.482Z,21.10
2018-07-10T20:50:33.157Z,21.00
2018-07-10T20:53:07.469Z,20.90
2018-07-10T20:55:41.229Z,20.90
2018-07-10T20:58:12.059Z,20.90
2018-07-10T21:00:40.925Z,21.00
2018-07-10T21:03:18.261Z,20.90
2018-07-10T21:05:47.094Z,20.90
2018-07-10T21:08:33.531Z,20.80
2018-07-10T21:11:08.596Z,20.80
2018-07-10T21:13:46.499Z,20.80
2018-07-10T21:16:18.358Z,20.80
2018-07-10T21:18:55.272Z,20.70
2018-07-10T21:21:30.710Z,20.70
2018-07-10T21:25:05.289Z,20.60
2018-07-10T21:27:43.311Z,20.60
2018-07-10T21:30:17.175Z,20.70
2018-07-10T21:32:55.252Z,20.70
2018-07-10T21:35:24.658Z,20.70
2018-07-10T21:39:01.337Z,20.60
2018-07-10T21:41:44.195Z,20.60
2018-07-10T21:44:39.240Z,20.60
2018-07-10T21:47:15.949Z,20.60
2018-07-10T21:49:49.917Z,20.60
2018-07-10T21:52:17.262Z,20.50
2018-07-10T21:54:44.706Z,20.50
2018-07-10T21:57:13.618Z,20.60
2018-07-10T21:59:46.669Z,20.60
2018-07-10T22:02:13.933Z,20.50
2018-07-10T22:04:41.348Z,20.40
2018-07-10T22:07:13.171Z,20.40
2018-07-10T22:09:41.214Z,20.40
2018-07-10T22:12:12.901Z,20.40
2018-07-10T22:14:40.768Z,20.50
2018-07-10T22:17:16.506Z,20.30
2018-07-10T22:19:44.570Z,20.30
2018-07-10T22:22:16.353Z,20.30
2018-07-10T22:24:43.766Z,20.30
2018-07-10T22:27:11.062Z,20.20
2018-07-10T22:29:44.178Z,20.20
2018-07-10T22:32:17.085Z,20.10
2018-07-10T22:34:44.457Z,20.10
2018-07-10T22:37:12.678Z,20.20
2018-07-10T22:39:40.779Z,20.10
2018-07-10T22:42:08.082Z,20.10
2018-07-10T22:44:37.188Z,20.20
2018-07-10T22:47:04.675Z,20.20
2018-07-10T22:49:31.996Z,20.10
2018-07-10T22:52:00.117Z,20.10
2018-07-10T22:54:27.925Z,20.10
2018-07-10T22:56:55.449Z,20.10
2018-07-10T22:59:22.878Z,20.10
2018-07-10T23:01:50.290Z,20.10
2018-07-10T23:04:18.186Z,20.00
2018-07-10T23:06:45.490Z,20.00
2018-07-10T23:09:12.757Z,20.10
2018-07-10T23:11:40.141Z,20.00
2018-07-10T23:14:07.506Z,20.00
2018-07-10T23:16:36.177Z,20.00
2018-07-10T23:19:04.245Z,20.00
2018-07-10T23:21:31.623Z,19.90
2018-07-10T23:23:59.052Z,19.90
2018-07-10T23:26:26.354Z,19.90
2018-07-10T23:28:54.359Z,19.90
2018-07-10T23:31:23.813Z,19.90
2018-07-10T23:34:23.486Z,19.80
2018-07-10T23:36:53.577Z,19.80
2018-07-10T23:39:32.490Z,19.90
2018-07-10T23:44:40.115Z,19.90
2018-07-10T23:47:16.221Z,19.80
2018-07-10T23:49:43.549Z,19.80
2018-07-10T23:53:25.259Z,19.90
2018-07-10T23:55:52.641Z,19.90
2018-07-10T23:58:19.930Z,19.80
